createdAt,value
2022-08-03T00:00:06.854Z,19
2022-08-03T00:01:23.151Z,19
2022-08-03T00:02:39.441Z,19
2022-08-03T00:03:55.738Z,19.1
2022-08-03T00:05:12.026Z,19.1
2022-08-03T00:06:28.327Z,19.1
2022-08-03T00:07:43.618Z,19.1
2022-08-03T00:08:59.927Z,19.1
2022-08-03T00:10:16.226Z,19.1
2022-08-03T00:11:32.511Z,19
2022-08-03T00:12:48.806Z,19
2022-08-03T00:14:05.088Z,19
2022-08-03T00:15:21.383Z,19
2022-08-03T00:16:36.700Z,19
2022-08-03T00:17:52.026Z,19
2022-08-03T00:19:07.332Z,18.9
2022-08-03T00:20:22.633Z,18.9
2022-08-03T00:21:38.931Z,18.9
2022-08-03T00:22:55.239Z,18.9
2022-08-03T00:24:11.526Z,18.9
2022-08-03T00:25:27.818Z,18.9
2022-08-03T00:26:44.105Z,18.9
2022-08-03T00:28:00.414Z,18.9
2022-08-03T00:29:16.695Z,18.9
2022-08-03T00:30:32.990Z,18.8
2022-08-03T00:31:49.292Z,18.8
2022-08-03T00:33:05.582Z,18.8
2022-08-03T00:34:21.871Z,18.7
2022-08-03T00:35:38.178Z,18.7
2022-08-03T00:36:53.480Z,18.7
2022-08-03T00:38:09.785Z,18.7
2022-08-03T00:39:26.064Z,18.7
2022-08-03T00:40:42.363Z,18.7
2022-08-03T00:41:58.655Z,18.7
2022-08-03T00:43:14.949Z,18.6
2022-08-03T00:44:31.253Z,18.6
2022-08-03T00:45:46.553Z,18.7
2022-08-03T00:47:01.876Z,18.7
2022-08-03T00:48:18.158Z,18.7
2022-08-03T00:49:34.455Z,18.6
2022-08-03T00:50:50.750Z,18.6
2022-08-03T00:52:07.052Z,18.5
2022-08-03T00:53:23.345Z,18.5
2022-08-03T00:54:39.633Z,18.4
2022-08-03T00:55:55.924Z,18.4
2022-08-03T00:57:12.223Z,18.3
2022-08-03T00:58:28.508Z,18.4
2022-08-03T00:59:44.816Z,18.4
2022-08-03T01:01:01.098Z,18.4
2022-08-03T01:02:17.393Z,18.4
2022-08-03T01:03:32.709Z,18.4
2022-08-03T01:04:48.995Z,18.4
2022-08-03T01:06:05.289Z,18.4
2022-08-03T01:07:21.592Z,18.4
2022-08-03T01:08:37.891Z,18.4
2022-08-03T01:09:54.184Z,18.5
2022-08-03T01:11:10.463Z,18.4
2022-08-03T01:12:25.778Z,18.4
2022-08-03T01:13:41.107Z,18.4
2022-08-03T01:14:56.413Z,18.4
2022-08-03T01:16:11.715Z,18.3
2022-08-03T01:17:28.013Z,18.2
2022-08-03T01:18:44.309Z,18.1
2022-08-03T01:20:00.605Z,18.1
2022-08-03T01:21:16.899Z,18
2022-08-03T01:22:33.191Z,18
2022-08-03T01:23:49.485Z,18
2022-08-03T01:25:05.791Z,18
2022-08-03T01:26:22.068Z,18
2022-08-03T01:27:38.359Z,18
2022-08-03T01:28:54.660Z,18
2022-08-03T01:30:10.948Z,18.1
2022-08-03T01:31:27.244Z,18.1
2022-08-03T01:32:42.566Z,18.1
2022-08-03T01:33:58.850Z,18.1
2022-08-03T01:35:15.158Z,18.1
2022-08-03T01:37:47.745Z,18.1
2022-08-03T01:39:04.041Z,18.1
2022-08-03T01:40:20.335Z,18.1
2022-08-03T01:41:36.624Z,18.1
2022-08-03T01:42:51.946Z,18.1
2022-08-03T01:44:07.240Z,18.1
2022-08-03T01:45:23.545Z,18
2022-08-03T01:46:39.841Z,18
2022-08-03T01:47:56.122Z,18
2022-08-03T01:49:12.433Z,17.9
2022-08-03T01:50:28.712Z,17.9
2022-08-03T01:51:45.021Z,17.9
2022-08-03T01:53:01.305Z,17.9
2022-08-03T01:54:17.595Z,17.9
2022-08-03T01:55:33.903Z,17.9
2022-08-03T01:56:50.199Z,17.8
2022-08-03T01:58:06.478Z,17.8
2022-08-03T01:59:22.771Z,17.9
2022-08-03T02:00:38.079Z,17.8
2022-08-03T02:01:54.374Z,17.8
2022-08-03T02:03:10.682Z,17.8
2022-08-03T02:04:26.968Z,17.7
2022-08-03T02:05:43.255Z,17.6
2022-08-03T02:06:59.551Z,17.7
2022-08-03T02:08:15.846Z,17.6
2022-08-03T02:09:31.162Z,17.7
2022-08-03T02:10:47.471Z,17.7
2022-08-03T02:12:02.769Z,17.7
2022-08-03T02:13:18.087Z,17.7
2022-08-03T02:14:33.402Z,17.7
2022-08-03T02:15:48.707Z,17.6
2022-08-03T02:17:04.017Z,17.6
2022-08-03T02:18:19.340Z,17.7
2022-08-03T02:19:35.622Z,17.7
2022-08-03T02:20:51.923Z,17.7
2022-08-03T02:22:08.228Z,17.7
2022-08-03T02:23:24.504Z,17.7
2022-08-03T02:24:40.797Z,17.8
2022-08-03T02:25:57.101Z,17.8
2022-08-03T02:27:13.397Z,17.8
2022-08-03T02:28:29.687Z,17.7
2022-08-03T02:29:45.992Z,17.8
2022-08-03T02:31:02.271Z,17.8
2022-08-03T02:32:18.568Z,17.8
2022-08-03T02:33:34.865Z,17.8
2022-08-03T02:34:50.173Z,17.8
2022-08-03T02:36:06.464Z,17.8
2022-08-03T02:37:22.756Z,17.8
2022-08-03T02:38:39.060Z,17.8
2022-08-03T02:39:55.358Z,17.8
2022-08-03T02:41:11.641Z,17.8
2022-08-03T02:42:27.948Z,17.8
2022-08-03T02:43:43.256Z,17.8
2022-08-03T02:44:58.568Z,17.7
2022-08-03T02:46:13.883Z,17.7
2022-08-03T02:47:29.185Z,17.7
2022-08-03T02:48:45.482Z,17.7
2022-08-03T02:50:01.782Z,17.6
2022-08-03T02:51:18.076Z,17.6
2022-08-03T02:52:34.365Z,17.6
2022-08-03T02:53:50.662Z,17.6
2022-08-03T02:55:06.951Z,17.6
2022-08-03T02:56:23.242Z,17.7
2022-08-03T02:57:39.535Z,17.7
2022-08-03T02:58:55.834Z,17.7
2022-08-03T03:00:12.137Z,17.7
2022-08-03T03:02:44.677Z,17.6
2022-08-03T03:03:59.984Z,17.5
2022-08-03T03:05:16.234Z,17.4
2022-08-03T03:06:32.466Z,17.4
2022-08-03T03:07:48.716Z,17.3
2022-08-03T03:09:04.958Z,17.3
2022-08-03T03:10:21.203Z,17.2
2022-08-03T03:11:37.447Z,17.2
2022-08-03T03:12:53.682Z,17.2
2022-08-03T03:14:08.946Z,17.2
2022-08-03T03:16:40.431Z,17.1
2022-08-03T03:17:55.692Z,17.2
2022-08-03T03:19:10.945Z,17.2
2022-08-03T03:20:27.200Z,17.2
2022-08-03T03:21:43.439Z,17.2
2022-08-03T03:22:59.664Z,17.2
2022-08-03T03:24:15.919Z,17.2
2022-08-03T03:25:32.161Z,17.1
2022-08-03T03:26:48.402Z,17.2
2022-08-03T03:28:04.637Z,17.2
2022-08-03T03:29:20.869Z,17.2
2022-08-03T03:30:37.123Z,17.2
2022-08-03T03:31:53.343Z,17.2
2022-08-03T03:33:09.584Z,17.2
2022-08-03T03:34:25.828Z,17.2
2022-08-03T03:35:41.095Z,17.1
2022-08-03T03:36:57.333Z,17.1
2022-08-03T03:38:13.576Z,17.2
2022-08-03T03:39:29.819Z,17.2
2022-08-03T03:40:46.053Z,17.2
2022-08-03T03:42:02.280Z,17.2
2022-08-03T03:43:18.538Z,17.2
2022-08-03T03:44:33.783Z,17.3
2022-08-03T03:45:49.054Z,17.3
2022-08-03T03:48:20.547Z,17.3
2022-08-03T03:49:35.802Z,17.3
2022-08-03T03:50:51.083Z,17.3
2022-08-03T03:52:06.329Z,17.3
2022-08-03T03:53:21.574Z,17.3
2022-08-03T03:54:37.824Z,17.3
2022-08-03T03:55:54.066Z,17.3
2022-08-03T03:57:10.297Z,17.3
2022-08-03T03:58:26.551Z,17.3
2022-08-03T03:59:42.783Z,17.3
2022-08-03T04:00:59.019Z,17.3
2022-08-03T04:02:15.266Z,17.4
2022-08-03T04:03:31.493Z,17.4
2022-08-03T04:04:47.746Z,17.4
2022-08-03T04:06:03.980Z,17.4
2022-08-03T04:07:20.212Z,17.4
2022-08-03T04:08:36.463Z,17.4
2022-08-03T04:09:51.712Z,17.4
2022-08-03T04:11:07.964Z,17.4
2022-08-03T04:12:24.188Z,17.5
2022-08-03T04:13:40.430Z,17.5
2022-08-03T04:14:56.681Z,17.5
2022-08-03T04:16:12.915Z,17.5
2022-08-03T04:17:29.167Z,17.5
2022-08-03T04:18:44.422Z,17.5
2022-08-03T04:19:59.666Z,17.5
2022-08-03T04:21:14.932Z,17.6
2022-08-03T04:22:30.203Z,17.6
2022-08-03T04:23:46.439Z,17.6
2022-08-03T04:25:02.670Z,17.6
2022-08-03T04:26:18.914Z,17.6
2022-08-03T04:28:51.393Z,17.7
2022-08-03T04:30:07.627Z,17.7
2022-08-03T04:31:23.871Z,17.8
2022-08-03T04:32:40.124Z,17.8
2022-08-03T04:33:56.360Z,17.9
2022-08-03T04:35:12.593Z,17.9
2022-08-03T04:36:28.840Z,17.9
2022-08-03T04:37:45.069Z,18
2022-08-03T04:39:00.328Z,18
2022-08-03T04:40:16.570Z,18
2022-08-03T04:41:32.817Z,18.1
2022-08-03T04:42:49.058Z,18.1
2022-08-03T04:44:05.294Z,18.1
2022-08-03T04:45:21.539Z,18.1
2022-08-03T04:46:37.775Z,18.2
2022-08-03T04:47:54.003Z,18.2
2022-08-03T04:49:09.280Z,18.2
2022-08-03T04:50:24.539Z,18.2
2022-08-03T04:51:40.768Z,18.3
2022-08-03T04:52:57.009Z,18.2
2022-08-03T04:54:13.249Z,18.3
2022-08-03T04:55:29.479Z,18.3
2022-08-03T04:56:45.724Z,18.3
2022-08-03T04:58:01.965Z,18.3
2022-08-03T04:59:18.199Z,18.3
2022-08-03T05:00:34.439Z,18.4
2022-08-03T05:01:50.695Z,18.4
2022-08-03T05:03:06.924Z,18.5
2022-08-03T05:04:23.178Z,18.5
2022-08-03T05:05:39.398Z,18.6
2022-08-03T05:06:54.671Z,18.6
2022-08-03T05:08:10.895Z,18.7
2022-08-03T05:09:27.149Z,18.7
2022-08-03T05:11:59.626Z,18.8
2022-08-03T05:13:15.861Z,18.9
2022-08-03T05:14:32.094Z,19
2022-08-03T05:15:48.345Z,19
2022-08-03T05:17:03.609Z,19
2022-08-03T05:18:18.851Z,19.1
2022-08-03T05:19:35.112Z,19.1
2022-08-03T05:20:51.334Z,19.2
2022-08-03T05:22:07.581Z,19.2
2022-08-03T05:23:23.823Z,19.3
2022-08-03T05:24:40.053Z,19.4
2022-08-03T05:27:12.542Z,19.5
2022-08-03T05:28:28.781Z,19.5
2022-08-03T05:29:45.018Z,19.6
2022-08-03T05:31:01.269Z,19.6
2022-08-03T05:32:17.499Z,19.6
2022-08-03T05:34:49.978Z,19.6
2022-08-03T05:36:05.245Z,19.7
2022-08-03T05:37:20.507Z,19.7
2022-08-03T05:38:35.759Z,19.8
2022-08-03T05:39:51.022Z,19.8
2022-08-03T05:41:07.247Z,19.9
2022-08-03T05:42:22.510Z,20
2022-08-03T05:43:37.779Z,20
2022-08-03T05:44:54.017Z,20
2022-08-03T05:46:10.256Z,20.1
2022-08-03T05:47:25.524Z,20.2
2022-08-03T05:48:41.745Z,20.2
2022-08-03T05:49:58.003Z,20.3
2022-08-03T05:51:14.243Z,20.4
2022-08-03T05:52:30.476Z,20.5
2022-08-03T05:53:46.722Z,20.6
2022-08-03T05:55:02.952Z,20.7
2022-08-03T05:56:18.217Z,20.7
2022-08-03T05:57:33.463Z,20.7
2022-08-03T05:58:49.703Z,20.8
2022-08-03T06:00:05.945Z,20.8
2022-08-03T06:01:22.192Z,20.8
2022-08-03T06:02:38.428Z,20.9
2022-08-03T06:03:54.681Z,20.9
2022-08-03T06:05:10.913Z,20.9
2022-08-03T06:06:27.158Z,20.9
2022-08-03T06:07:43.401Z,21
2022-08-03T06:08:59.638Z,21.1
2022-08-03T06:10:15.868Z,21.1
2022-08-03T06:11:32.118Z,21.3
2022-08-03T06:12:48.343Z,21.4
2022-08-03T06:15:19.851Z,21.7
2022-08-03T06:16:36.097Z,21.8
2022-08-03T06:17:52.323Z,21.9
2022-08-03T06:19:08.559Z,22
2022-08-03T06:20:24.818Z,22.1
2022-08-03T06:21:41.056Z,22.2
2022-08-03T06:22:57.282Z,22.3
2022-08-03T06:24:12.545Z,22.3
2022-08-03T06:25:27.805Z,22.4
2022-08-03T06:26:43.076Z,22.5
2022-08-03T06:27:58.323Z,22.5
2022-08-03T06:29:14.561Z,22.6
2022-08-03T06:30:30.805Z,22.6
2022-08-03T06:31:47.050Z,22.7
2022-08-03T06:33:03.294Z,22.7
2022-08-03T06:34:19.515Z,22.7
2022-08-03T06:35:35.758Z,22.6
2022-08-03T06:36:52.012Z,22.5
2022-08-03T06:38:08.235Z,22.6
2022-08-03T06:39:24.482Z,22.6
2022-08-03T06:40:40.733Z,22.8
2022-08-03T06:41:56.972Z,23
2022-08-03T06:43:13.200Z,23
2022-08-03T06:44:28.455Z,23.1
2022-08-03T06:45:44.704Z,23.2
2022-08-03T06:47:00.950Z,23.3
2022-08-03T06:48:17.180Z,23.5
2022-08-03T06:49:33.417Z,23.7
2022-08-03T06:50:49.666Z,23.9
2022-08-03T06:52:05.907Z,24.2
2022-08-03T06:53:21.164Z,24.5
2022-08-03T06:54:36.413Z,24.7
2022-08-03T06:55:51.684Z,24.9
2022-08-03T06:57:06.941Z,25.1
2022-08-03T06:58:23.172Z,25.4
2022-08-03T06:59:39.408Z,25.5
2022-08-03T07:00:55.666Z,25.5
2022-08-03T07:02:11.899Z,25.5
2022-08-03T07:03:28.139Z,25.5
2022-08-03T07:04:44.388Z,25.4
2022-08-03T07:06:00.628Z,25.4
2022-08-03T07:07:16.848Z,25.3
2022-08-03T07:08:33.102Z,25.3
2022-08-03T07:09:49.344Z,25.5
2022-08-03T07:11:05.581Z,25.6
2022-08-03T07:12:21.810Z,25.8
2022-08-03T07:13:37.078Z,26
2022-08-03T07:14:53.318Z,26.1
2022-08-03T07:16:09.555Z,26.2
2022-08-03T07:17:25.799Z,26.2
2022-08-03T07:18:42.000Z,26.1
2022-08-03T07:19:58.271Z,26.3
2022-08-03T07:21:14.522Z,26.3
2022-08-03T07:22:29.777Z,26.3
2022-08-03T07:23:45.042Z,26.4
2022-08-03T07:25:01.275Z,26.5
2022-08-03T07:26:17.508Z,26.7
2022-08-03T07:27:33.758Z,26.9
2022-08-03T07:28:49.994Z,26.9
2022-08-03T07:30:06.236Z,26.9
2022-08-03T07:31:22.464Z,27.1
2022-08-03T07:32:38.709Z,27.3
2022-08-03T07:33:54.000Z,27.6
2022-08-03T07:35:11.194Z,27.8
2022-08-03T07:36:27.428Z,27.7
2022-08-03T07:37:43.679Z,27.8
2022-08-03T07:38:59.903Z,27.8
2022-08-03T07:40:15.173Z,28
2022-08-03T07:41:31.407Z,28.2
2022-08-03T07:42:47.644Z,28.5
2022-08-03T07:44:03.886Z,28.5
2022-08-03T07:45:20.124Z,28.4
2022-08-03T07:46:36.365Z,28.5
2022-08-03T07:47:52.602Z,28.7
2022-08-03T07:49:07.878Z,28.8
2022-08-03T07:50:23.121Z,28.8
2022-08-03T07:51:38.396Z,28.8
2022-08-03T07:52:53.646Z,28.9
2022-08-03T07:54:08.899Z,28.9
2022-08-03T07:55:24.153Z,28.9
2022-08-03T07:56:39.412Z,29
2022-08-03T07:57:54.676Z,28.7
2022-08-03T07:59:10.919Z,28.7
2022-08-03T08:00:27.164Z,28.9
2022-08-03T08:01:43.394Z,28.9
2022-08-03T08:02:59.628Z,28.9
2022-08-03T08:04:15.881Z,28.8
2022-08-03T08:05:32.117Z,28.5
2022-08-03T08:06:48.355Z,28.7
2022-08-03T08:08:04.595Z,28.9
2022-08-03T08:09:20.841Z,29.1
2022-08-03T08:10:37.077Z,29
2022-08-03T08:11:53.317Z,29.1
2022-08-03T08:13:09.561Z,29.4
2022-08-03T08:14:24.819Z,29.7
2022-08-03T08:15:41.051Z,29.9
2022-08-03T08:16:57.301Z,29.7
2022-08-03T08:18:13.533Z,29.6
2022-08-03T08:19:29.774Z,29.6
2022-08-03T08:20:46.012Z,29.8
2022-08-03T08:22:02.264Z,30
2022-08-03T08:23:17.524Z,30.2
2022-08-03T08:24:32.778Z,30.4
2022-08-03T08:25:48.029Z,30.6
2022-08-03T08:27:03.290Z,30.4
2022-08-03T08:28:18.542Z,30.4
2022-08-03T08:29:33.805Z,30.2
2022-08-03T08:30:50.042Z,30.4
2022-08-03T08:32:06.291Z,30.4
2022-08-03T08:33:22.528Z,30.5
2022-08-03T08:34:38.765Z,30.6
2022-08-03T08:35:55.017Z,30.5
2022-08-03T08:37:11.242Z,30.5
2022-08-03T08:38:27.480Z,30.6
2022-08-03T08:39:43.733Z,30.8
2022-08-03T08:40:59.976Z,30.7
2022-08-03T08:42:16.209Z,30.8
2022-08-03T08:43:32.458Z,31
2022-08-03T08:44:48.691Z,31.2
2022-08-03T08:46:03.951Z,31.4
2022-08-03T08:47:20.193Z,31.4
2022-08-03T08:48:36.421Z,31.2
2022-08-03T08:49:52.670Z,31.3
2022-08-03T08:51:08.916Z,31.5
2022-08-03T08:52:25.145Z,31.7
2022-08-03T08:53:41.379Z,31.7
2022-08-03T08:54:56.645Z,31.7
2022-08-03T08:56:11.916Z,31.7
2022-08-03T08:57:27.161Z,31.8
2022-08-03T08:58:42.424Z,31.8
2022-08-03T08:59:58.664Z,32
2022-08-03T09:02:31.135Z,32.1
2022-08-03T09:03:47.380Z,32.2
2022-08-03T09:05:03.636Z,32.4
2022-08-03T09:06:19.871Z,32.5
2022-08-03T09:07:36.115Z,32.6
2022-08-03T09:08:52.357Z,32.6
2022-08-03T09:10:08.577Z,32.6
2022-08-03T09:11:24.828Z,32.4
2022-08-03T09:12:41.060Z,32.1
2022-08-03T09:13:57.298Z,32.1
2022-08-03T09:15:12.571Z,31.9
2022-08-03T09:16:28.799Z,31.8
2022-08-03T09:17:45.036Z,31.9
2022-08-03T09:19:01.290Z,31.9
2022-08-03T09:20:17.519Z,31.8
2022-08-03T09:21:33.767Z,31.9
2022-08-03T09:22:50.004Z,32.1
2022-08-03T09:24:06.256Z,32.3
2022-08-03T09:25:21.510Z,32.1
2022-08-03T09:26:36.770Z,32
2022-08-03T09:27:53.001Z,32.1
2022-08-03T09:29:09.255Z,32.2
2022-08-03T09:30:24.505Z,32.4
2022-08-03T09:31:39.771Z,32.5
2022-08-03T09:32:56.003Z,32.8
2022-08-03T09:34:12.249Z,33
2022-08-03T09:35:28.482Z,33.1
2022-08-03T09:36:44.724Z,33.2
2022-08-03T09:38:00.968Z,33.3
2022-08-03T09:39:17.198Z,33.3
2022-08-03T09:40:33.436Z,33.2
2022-08-03T09:41:49.680Z,33.2
2022-08-03T09:43:05.928Z,33.1
2022-08-03T09:44:22.169Z,33.2
2022-08-03T09:45:38.410Z,33.3
2022-08-03T09:46:54.651Z,33
2022-08-03T09:48:09.907Z,33
2022-08-03T09:49:26.144Z,33
2022-08-03T09:50:42.376Z,33.1
2022-08-03T09:51:58.629Z,33.1
2022-08-03T09:53:14.856Z,33.2
2022-08-03T09:54:31.096Z,32.9
2022-08-03T09:55:47.337Z,32.7
2022-08-03T09:57:02.614Z,32.5
2022-08-03T09:58:17.861Z,32.5
2022-08-03T09:59:34.109Z,32.5
2022-08-03T10:00:50.339Z,32.5
2022-08-03T10:02:05.607Z,32.6
2022-08-03T10:03:21.854Z,32.6
2022-08-03T10:04:38.093Z,32.4
2022-08-03T10:05:54.336Z,32.3
2022-08-03T10:07:10.559Z,32.3
2022-08-03T10:08:26.809Z,32.3
2022-08-03T10:09:43.050Z,32.2
2022-08-03T10:10:59.297Z,31.9
2022-08-03T10:12:15.534Z,31.6
2022-08-03T10:13:31.764Z,31.8
2022-08-03T10:14:48.008Z,31.8
2022-08-03T10:16:04.251Z,31.7
2022-08-03T10:17:20.487Z,31.7
2022-08-03T10:18:35.736Z,31.5
2022-08-03T10:19:51.978Z,31.3
2022-08-03T10:21:08.221Z,31.1
2022-08-03T10:22:24.459Z,30.8
2022-08-03T10:23:39.720Z,30.7
2022-08-03T10:24:54.976Z,30.8
2022-08-03T10:26:10.251Z,31.1
2022-08-03T10:27:25.492Z,31.4
2022-08-03T10:28:40.763Z,31.6
2022-08-03T10:29:56.016Z,31.4
2022-08-03T10:31:12.253Z,31.4
2022-08-03T10:32:28.502Z,31.3
2022-08-03T10:33:44.743Z,31.3
2022-08-03T10:35:00.975Z,31.1
2022-08-03T10:36:17.230Z,30.7
2022-08-03T10:37:33.468Z,30.6
2022-08-03T10:38:49.699Z,30.6
2022-08-03T10:40:05.946Z,30.6
2022-08-03T10:41:22.194Z,30.6
2022-08-03T10:42:38.000Z,30.7
2022-08-03T10:43:54.666Z,30.8
2022-08-03T10:45:10.907Z,30.8
2022-08-03T10:46:26.167Z,30.9
2022-08-03T10:47:42.392Z,30.9
2022-08-03T10:48:58.635Z,30.6
2022-08-03T10:50:14.876Z,30.6
2022-08-03T10:51:31.122Z,30.6
2022-08-03T10:52:47.354Z,30.6
2022-08-03T10:54:03.611Z,30.6
2022-08-03T10:55:18.870Z,30.6
2022-08-03T10:56:34.121Z,30.6
2022-08-03T10:57:49.393Z,30.8
2022-08-03T10:59:04.634Z,30.8
2022-08-03T11:00:20.868Z,30.8
2022-08-03T11:01:37.109Z,30.7
2022-08-03T11:02:53.365Z,30.7
2022-08-03T11:04:09.604Z,30.7
2022-08-03T11:05:25.833Z,30.7
2022-08-03T11:06:42.075Z,30.6
2022-08-03T11:07:58.314Z,30.7
2022-08-03T11:09:14.556Z,30.8
2022-08-03T11:10:30.797Z,30.8
2022-08-03T11:11:47.047Z,30.8
2022-08-03T11:13:03.000Z,30.9
2022-08-03T11:14:19.532Z,30.9
2022-08-03T11:15:34.789Z,30.9
2022-08-03T11:16:51.021Z,30.9
2022-08-03T11:18:07.258Z,31
2022-08-03T11:19:23.494Z,31
2022-08-03T11:20:39.732Z,30.9
2022-08-03T11:21:55.986Z,30.9
2022-08-03T11:23:12.230Z,30.9
2022-08-03T11:24:27.486Z,30.9
2022-08-03T11:25:42.750Z,31
2022-08-03T11:26:58.980Z,30.9
2022-08-03T11:28:15.223Z,30.9
2022-08-03T11:29:31.450Z,30.9
2022-08-03T11:30:47.709Z,30.9
2022-08-03T11:32:03.946Z,31
2022-08-03T11:33:20.171Z,31.1
2022-08-03T11:34:36.411Z,31.1
2022-08-03T11:35:52.667Z,31.2
2022-08-03T11:37:08.905Z,31.3
2022-08-03T11:38:25.145Z,31.2
2022-08-03T11:39:41.380Z,31.1
2022-08-03T11:40:57.624Z,30.9
2022-08-03T11:42:12.869Z,30.8
2022-08-03T11:43:29.124Z,30.9
2022-08-03T11:44:45.352Z,30.9
2022-08-03T11:46:01.590Z,30.9
2022-08-03T11:47:17.829Z,30.8
2022-08-03T11:48:34.090Z,30.9
2022-08-03T11:49:50.317Z,31
2022-08-03T11:51:05.575Z,31
2022-08-03T11:52:20.836Z,31
2022-08-03T11:53:37.077Z,31.1
2022-08-03T11:54:53.314Z,31.1
2022-08-03T11:56:09.561Z,31.2
2022-08-03T11:57:25.797Z,31.3
2022-08-03T11:58:42.038Z,31.4
2022-08-03T11:59:58.288Z,31.4
2022-08-03T12:01:14.521Z,31.4
2022-08-03T12:02:30.752Z,31.5
2022-08-03T12:03:46.994Z,31.5
2022-08-03T12:05:03.250Z,31.3
2022-08-03T12:06:19.481Z,31.2
2022-08-03T12:07:35.712Z,31.3
2022-08-03T12:08:50.981Z,31.3
2022-08-03T12:10:07.224Z,31.3
2022-08-03T12:11:23.463Z,31.4
2022-08-03T12:12:39.696Z,31.4
2022-08-03T12:13:55.945Z,31.4
2022-08-03T12:15:12.176Z,31.4
2022-08-03T12:16:28.419Z,31.4
2022-08-03T12:17:43.691Z,31.4
2022-08-03T12:18:58.946Z,31.3
2022-08-03T12:20:14.191Z,31.3
2022-08-03T12:21:29.457Z,31.2
2022-08-03T12:22:44.711Z,31
2022-08-03T12:23:59.969Z,31.1
2022-08-03T12:25:15.233Z,31.1
2022-08-03T12:26:30.493Z,31.2
2022-08-03T12:27:46.736Z,31.3
2022-08-03T12:29:02.978Z,31.4
2022-08-03T12:31:35.442Z,31.5
2022-08-03T12:32:51.694Z,31.4
2022-08-03T12:34:07.938Z,31.4
2022-08-03T12:35:24.165Z,31.5
2022-08-03T12:36:40.419Z,31.5
2022-08-03T12:37:56.649Z,31.4
2022-08-03T12:39:12.901Z,31.5
2022-08-03T12:40:29.130Z,31.5
2022-08-03T12:41:45.373Z,31.5
2022-08-03T12:43:00.628Z,31.5
2022-08-03T12:44:16.874Z,31.6
2022-08-03T12:45:33.113Z,31.5
2022-08-03T12:46:49.345Z,31.5
2022-08-03T12:48:05.601Z,31.5
2022-08-03T12:49:21.829Z,31.5
2022-08-03T12:50:38.073Z,31.5
2022-08-03T12:51:54.303Z,31.5
2022-08-03T12:53:09.564Z,31.6
2022-08-03T12:54:24.837Z,31.6
2022-08-03T12:55:40.089Z,31.6
2022-08-03T12:56:55.342Z,31.6
2022-08-03T12:58:11.592Z,31.6
2022-08-03T12:59:27.831Z,31.5
2022-08-03T13:00:44.077Z,31.5
2022-08-03T13:02:00.317Z,31.4
2022-08-03T13:03:16.560Z,31.4
2022-08-03T13:04:32.793Z,31.5
2022-08-03T13:05:49.022Z,31.6
2022-08-03T13:07:05.280Z,31.6
2022-08-03T13:08:21.508Z,31.7
2022-08-03T13:09:37.749Z,31.7
2022-08-03T13:10:53.999Z,31.7
2022-08-03T13:12:10.231Z,31.7
2022-08-03T13:13:25.491Z,31.7
2022-08-03T13:14:41.732Z,31.8
2022-08-03T13:15:57.965Z,31.7
2022-08-03T13:17:14.215Z,31.7
2022-08-03T13:18:30.444Z,31.8
2022-08-03T13:19:46.688Z,31.8
2022-08-03T13:21:02.925Z,31.7
2022-08-03T13:22:18.183Z,31.8
2022-08-03T13:23:33.441Z,31.8
2022-08-03T13:24:49.682Z,31.7
2022-08-03T13:26:05.927Z,31.8
2022-08-03T13:27:22.174Z,31.8
2022-08-03T13:28:38.397Z,31.8
2022-08-03T13:29:54.641Z,31.7
2022-08-03T13:31:10.886Z,31.7
2022-08-03T13:32:27.119Z,31.7
2022-08-03T13:33:43.378Z,31.7
2022-08-03T13:34:59.608Z,31.8
2022-08-03T13:36:15.841Z,31.7
2022-08-03T13:37:32.087Z,31.8
2022-08-03T13:38:48.323Z,31.7
2022-08-03T13:40:03.589Z,31.8
2022-08-03T13:41:19.817Z,31.8
2022-08-03T13:42:36.077Z,31.8
2022-08-03T13:43:52.313Z,31.8
2022-08-03T13:45:08.543Z,31.8
2022-08-03T13:46:24.783Z,31.9
2022-08-03T13:47:41.028Z,31.9
2022-08-03T13:48:56.293Z,31.9
2022-08-03T13:50:11.535Z,32
2022-08-03T13:51:27.790Z,32
2022-08-03T13:52:44.018Z,32.1
2022-08-03T13:54:00.272Z,32.1
2022-08-03T13:55:16.501Z,32.1
2022-08-03T13:56:32.742Z,32.1
2022-08-03T13:57:48.979Z,32.1
2022-08-03T13:59:05.217Z,32.1
2022-08-03T14:00:21.464Z,32.1
2022-08-03T14:01:37.700Z,32.2
2022-08-03T14:02:53.953Z,32.2
2022-08-03T14:04:10.187Z,32.2
2022-08-03T14:05:26.423Z,32.2
2022-08-03T14:06:41.689Z,32.2
2022-08-03T14:07:57.924Z,32.2
2022-08-03T14:09:14.156Z,32.3
2022-08-03T14:10:30.399Z,32.3
2022-08-03T14:11:46.653Z,32.3
2022-08-03T14:13:02.892Z,32.3
2022-08-03T14:14:19.133Z,32.3
2022-08-03T14:15:34.387Z,32.3
2022-08-03T14:18:05.898Z,32.4
2022-08-03T14:19:21.154Z,32.4
2022-08-03T14:20:36.421Z,32.4
2022-08-03T14:21:52.647Z,32.4
2022-08-03T14:23:08.898Z,32.4
2022-08-03T14:24:25.135Z,32.4
2022-08-03T14:25:41.382Z,32.5
2022-08-03T14:26:57.608Z,32.6
2022-08-03T14:28:13.860Z,32.7
2022-08-03T14:29:30.088Z,32.7
2022-08-03T14:30:46.329Z,32.7
2022-08-03T14:32:02.578Z,32.8
2022-08-03T14:33:18.824Z,32.8
2022-08-03T14:34:35.060Z,32.8
2022-08-03T14:35:51.294Z,32.9
2022-08-03T14:37:06.564Z,32.8
2022-08-03T14:38:22.803Z,32.9
2022-08-03T14:39:39.035Z,32.9
2022-08-03T14:40:55.272Z,32.8
2022-08-03T14:42:11.513Z,32.8
2022-08-03T14:43:27.762Z,32.8
2022-08-03T14:44:43.993Z,32.8
2022-08-03T14:45:59.267Z,32.8
2022-08-03T14:47:14.506Z,32.8
2022-08-03T14:48:29.769Z,32.8
2022-08-03T14:49:45.038Z,32.8
2022-08-03T14:51:01.268Z,32.8
2022-08-03T14:52:17.511Z,32.8
2022-08-03T14:53:33.752Z,32.8
2022-08-03T14:54:49.998Z,32.7
2022-08-03T14:56:06.245Z,32.8
2022-08-03T14:57:22.465Z,32.9
2022-08-03T14:58:38.705Z,32.9
2022-08-03T14:59:54.948Z,33
2022-08-03T15:01:11.189Z,33
2022-08-03T15:02:27.439Z,33
2022-08-03T15:03:43.676Z,33
2022-08-03T15:04:59.908Z,33
2022-08-03T15:07:31.417Z,33
2022-08-03T15:08:47.649Z,33.1
2022-08-03T15:10:03.889Z,33.1
2022-08-03T15:11:20.138Z,33.1
2022-08-03T15:12:36.370Z,33
2022-08-03T15:13:52.612Z,33
2022-08-03T15:15:08.858Z,33
2022-08-03T15:16:24.117Z,33
2022-08-03T15:17:39.380Z,33
2022-08-03T15:18:54.640Z,33
2022-08-03T15:20:09.881Z,33
2022-08-03T15:21:25.162Z,32.9
2022-08-03T15:22:40.412Z,32.9
2022-08-03T15:23:55.681Z,32.9
2022-08-03T15:25:10.924Z,32.9
2022-08-03T15:26:26.196Z,32.9
2022-08-03T15:27:41.450Z,32.9
2022-08-03T15:28:57.683Z,32.9
2022-08-03T15:30:13.917Z,32.9
2022-08-03T15:31:30.156Z,32.9
2022-08-03T15:32:46.404Z,32.9
2022-08-03T15:34:02.645Z,32.9
2022-08-03T15:35:18.888Z,32.9
2022-08-03T15:36:35.123Z,32.9
2022-08-03T15:37:51.359Z,32.8
2022-08-03T15:39:07.609Z,32.7
2022-08-03T15:40:23.843Z,32.7
2022-08-03T15:41:40.082Z,32.8
2022-08-03T15:42:56.322Z,32.7
2022-08-03T15:44:11.594Z,32.7
2022-08-03T15:45:27.817Z,32.7
2022-08-03T15:46:44.071Z,32.6
2022-08-03T15:48:00.315Z,32.6
2022-08-03T15:49:16.538Z,32.5
2022-08-03T15:50:32.784Z,32.4
2022-08-03T15:51:49.022Z,32.3
2022-08-03T15:53:04.280Z,32.3
2022-08-03T15:54:19.540Z,32.3
2022-08-03T15:55:35.795Z,32.2
2022-08-03T15:56:52.032Z,32.2
2022-08-03T15:58:08.273Z,32.2
2022-08-03T15:59:24.512Z,32.2
2022-08-03T16:00:40.752Z,32.3
2022-08-03T16:01:56.996Z,32.3
2022-08-03T16:03:13.222Z,32.3
2022-08-03T16:04:29.466Z,32.2
2022-08-03T16:05:45.703Z,32.2
2022-08-03T16:07:01.950Z,32.1
2022-08-03T16:08:18.184Z,32.1
2022-08-03T16:09:34.420Z,32.1
2022-08-03T16:10:49.680Z,32.1
2022-08-03T16:12:05.928Z,32.1
2022-08-03T16:13:22.157Z,32
2022-08-03T16:15:54.641Z,31.9
2022-08-03T16:17:10.878Z,31.9
2022-08-03T16:18:27.135Z,31.9
2022-08-03T16:19:43.367Z,31.9
2022-08-03T16:20:58.623Z,31.9
2022-08-03T16:22:13.877Z,32
2022-08-03T16:23:30.115Z,32
2022-08-03T16:24:46.368Z,32
2022-08-03T16:26:02.600Z,32
2022-08-03T16:27:18.852Z,32
2022-08-03T16:28:35.088Z,31.9
2022-08-03T16:29:51.333Z,31.8
2022-08-03T16:31:07.565Z,31.8
2022-08-03T16:32:23.807Z,31.7
2022-08-03T16:33:40.057Z,31.7
2022-08-03T16:34:56.296Z,31.6
2022-08-03T16:36:12.536Z,31.6
2022-08-03T16:37:28.776Z,31.5
2022-08-03T16:38:44.031Z,31.5
2022-08-03T16:41:16.508Z,31.4
2022-08-03T16:43:48.959Z,31.4
2022-08-03T16:45:04.224Z,31.4
2022-08-03T16:46:19.481Z,31.4
2022-08-03T16:47:34.752Z,31.4
2022-08-03T16:48:50.010Z,31.4
2022-08-03T16:50:06.247Z,31.4
2022-08-03T16:51:22.486Z,31.4
2022-08-03T16:52:38.000Z,31.3
2022-08-03T16:53:54.967Z,31.3
2022-08-03T16:55:11.198Z,31.3
2022-08-03T16:56:27.438Z,31.3
2022-08-03T16:57:43.685Z,31.3
2022-08-03T16:58:59.934Z,31.4
2022-08-03T17:00:16.159Z,31.4
2022-08-03T17:01:31.429Z,31.3
2022-08-03T17:02:46.680Z,31.4
2022-08-03T17:04:01.937Z,31.3
2022-08-03T17:05:17.213Z,31.3
2022-08-03T17:06:33.453Z,31.3
2022-08-03T17:07:49.687Z,31.3
2022-08-03T17:09:05.934Z,31.4
2022-08-03T17:10:22.156Z,31.3
2022-08-03T17:11:38.402Z,31.3
2022-08-03T17:12:54.639Z,31.3
2022-08-03T17:14:10.879Z,31.3
2022-08-03T17:15:27.115Z,31.2
2022-08-03T17:16:43.375Z,31.2
2022-08-03T17:17:59.601Z,31.2